sensor_id;sensor_type;location;lat;lon;timestamp;pressure;altitude;pressure_sealevel;temperature;humidity
37170;BME280;23062;13.952;100.608;2023-06-14T00:04:07;1009.79;;;30.94;67.46
37170;BME280;23062;13.952;100.608;2023-06-14T00:08:33;1009.78;;;30.97;67.81
37170;BME280;23062;13.952;100.608;2023-06-14T00:13:00;1009.74;;;30.98;67.41
37170;BME280;23062;13.952;100.608;2023-06-14T00:17:26;1009.69;;;30.96;67.42
37170;BME280;23062;13.952;100.608;2023-06-14T00:22:19;1009.71;;;30.98;67.18
37170;BME280;23062;13.952;100.608;2023-06-14T00:26:54;1009.79;;;30.99;67.08
37170;BME280;23062;13.952;100.608;2023-06-14T00:31:30;1009.76;;;31.03;66.84
37170;BME280;23062;13.952;100.608;2023-06-14T00:35:57;1009.66;;;31.02;66.75
37170;BME280;23062;13.952;100.608;2023-06-14T00:40:30;1009.78;;;31.05;66.80
37170;BME280;23062;13.952;100.608;2023-06-14T00:45:33;1009.89;;;31.06;66.63
37170;BME280;23062;13.952;100.608;2023-06-14T00:50:03;1009.88;;;31.06;66.46
37170;BME280;23062;13.952;100.608;2023-06-14T00:54:30;1009.96;;;31.05;66.49
37170;BME280;23062;13.952;100.608;2023-06-14T00:58:57;1010.03;;;31.08;66.51
37170;BME280;23062;13.952;100.608;2023-06-14T01:03:24;1010.10;;;31.07;66.62
37170;BME280;23062;13.952;100.608;2023-06-14T01:08:05;1010.16;;;31.08;66.55
37170;BME280;23062;13.952;100.608;2023-06-14T01:17:17;1010.14;;;31.11;66.68
37170;BME280;23062;13.952;100.608;2023-06-14T01:21:43;1010.19;;;31.11;66.08
37170;BME280;23062;13.952;100.608;2023-06-14T01:26:10;1010.15;;;31.11;66.11
37170;BME280;23062;13.952;100.608;2023-06-14T01:30:45;1010.16;;;31.07;65.91
37170;BME280;23062;13.952;100.608;2023-06-14T01:35:19;1010.18;;;31.08;65.85
37170;BME280;23062;13.952;100.608;2023-06-14T01:39:48;1010.23;;;31.09;66.33
37170;BME280;23062;13.952;100.608;2023-06-14T01:44:14;1010.22;;;31.11;66.04
37170;BME280;23062;13.952;100.608;2023-06-14T01:48:46;1010.26;;;31.11;66.20
37170;BME280;23062;13.952;100.608;2023-06-14T01:53:13;1010.18;;;31.09;65.91
37170;BME280;23062;13.952;100.608;2023-06-14T01:57:40;1010.16;;;31.12;65.57
37170;BME280;23062;13.952;100.608;2023-06-14T02:02:06;1010.18;;;31.19;65.52
37170;BME280;23062;13.952;100.608;2023-06-14T02:06:32;1010.12;;;31.24;65.25
37170;BME280;23062;13.952;100.608;2023-06-14T02:11:03;1010.21;;;31.28;65.08
37170;BME280;23062;13.952;100.608;2023-06-14T02:15:29;1010.14;;;31.30;64.76
37170;BME280;23062;13.952;100.608;2023-06-14T02:19:59;1010.07;;;31.32;64.62
37170;BME280;23062;13.952;100.608;2023-06-14T02:24:26;1010.01;;;31.36;64.33
37170;BME280;23062;13.952;100.608;2023-06-14T02:28:53;1009.99;;;31.37;64.27
37170;BME280;23062;13.952;100.608;2023-06-14T02:33:20;1009.99;;;31.40;64.23
37170;BME280;23062;13.952;100.608;2023-06-14T02:37:48;1009.95;;;31.41;64.21
37170;BME280;23062;13.952;100.608;2023-06-14T02:42:16;1009.97;;;31.43;63.94
37170;BME280;23062;13.952;100.608;2023-06-14T02:46:50;1009.85;;;31.45;63.66
37170;BME280;23062;13.952;100.608;2023-06-14T02:51:16;1009.85;;;31.45;63.36
37170;BME280;23062;13.952;100.608;2023-06-14T02:55:53;1009.83;;;31.48;63.24
37170;BME280;23062;13.952;100.608;2023-06-14T03:00:19;1009.76;;;31.49;63.31
37170;BME280;23062;13.952;100.608;2023-06-14T03:04:46;1009.80;;;31.51;63.28
37170;BME280;23062;13.952;100.608;2023-06-14T03:09:13;1009.84;;;31.52;63.30
37170;BME280;23062;13.952;100.608;2023-06-14T03:13:42;1009.83;;;31.52;63.32
37170;BME280;23062;13.952;100.608;2023-06-14T03:18:09;1009.80;;;31.53;63.34
37170;BME280;23062;13.952;100.608;2023-06-14T03:22:36;1009.74;;;31.55;63.00
37170;BME280;23062;13.952;100.608;2023-06-14T03:27:04;1009.67;;;31.56;63.09
37170;BME280;23062;13.952;100.608;2023-06-14T03:31:36;1009.76;;;31.56;63.09
37170;BME280;23062;13.952;100.608;2023-06-14T03:36:03;1009.73;;;31.58;63.09
37170;BME280;23062;13.952;100.608;2023-06-14T03:40:31;1009.77;;;31.58;63.18
37170;BME280;23062;13.952;100.608;2023-06-14T03:44:59;1009.78;;;31.62;62.03
37170;BME280;23062;13.952;100.608;2023-06-14T03:49:27;1009.76;;;31.63;61.96
37170;BME280;23062;13.952;100.608;2023-06-14T03:53:53;1009.72;;;31.60;61.89
37170;BME280;23062;13.952;100.608;2023-06-14T03:58:21;1009.78;;;31.63;61.93
37170;BME280;23062;13.952;100.608;2023-06-14T04:02:47;1009.75;;;31.64;62.05
37170;BME280;23062;13.952;100.608;2023-06-14T04:07:15;1009.75;;;31.63;61.92
37170;BME280;23062;13.952;100.608;2023-06-14T04:11:44;1009.79;;;31.65;61.89
37170;BME280;23062;13.952;100.608;2023-06-14T04:16:11;1009.84;;;31.66;62.06
37170;BME280;23062;13.952;100.608;2023-06-14T04:20:41;1009.80;;;31.64;62.11
37170;BME280;23062;13.952;100.608;2023-06-14T04:25:09;1009.78;;;31.65;61.52
37170;BME280;23062;13.952;100.608;2023-06-14T04:29:38;1009.78;;;31.66;61.18
37170;BME280;23062;13.952;100.608;2023-06-14T04:34:07;1009.83;;;31.65;60.98
37170;BME280;23062;13.952;100.608;2023-06-14T04:38:36;1009.87;;;31.65;60.76
37170;BME280;23062;13.952;100.608;2023-06-14T04:43:10;1009.79;;;31.65;60.52
37170;BME280;23062;13.952;100.608;2023-06-14T04:47:42;1009.76;;;31.67;59.75
37170;BME280;23062;13.952;100.608;2023-06-14T04:52:17;1009.80;;;31.64;59.71
37170;BME280;23062;13.952;100.608;2023-06-14T04:56:46;1009.77;;;31.67;59.62
37170;BME280;23062;13.952;100.608;2023-06-14T05:01:12;1009.73;;;31.67;59.67
37170;BME280;23062;13.952;100.608;2023-06-14T05:05:46;1009.70;;;31.67;59.10
37170;BME280;23062;13.952;100.608;2023-06-14T05:10:13;1009.64;;;31.67;59.30
37170;BME280;23062;13.952;100.608;2023-06-14T05:14:46;1009.66;;;31.68;59.49
37170;BME280;23062;13.952;100.608;2023-06-14T05:19:12;1009.60;;;31.68;59.44
37170;BME280;23062;13.952;100.608;2023-06-14T05:23:42;1009.60;;;31.69;59.23
37170;BME280;23062;13.952;100.608;2023-06-14T05:28:16;1009.55;;;31.69;58.97
37170;BME280;23062;13.952;100.608;2023-06-14T05:32:44;1009.46;;;31.72;59.09
37170;BME280;23062;13.952;100.608;2023-06-14T05:37:10;1009.39;;;31.73;58.76
37170;BME280;23062;13.952;100.608;2023-06-14T05:41:44;1009.32;;;31.75;59.05
37170;BME280;23062;13.952;100.608;2023-06-14T05:46:11;1009.27;;;31.75;59.09
37170;BME280;23062;13.952;100.608;2023-06-14T05:50:38;1009.26;;;31.75;59.16
37170;BME280;23062;13.952;100.608;2023-06-14T05:55:21;1009.22;;;31.77;59.33
37170;BME280;23062;13.952;100.608;2023-06-14T05:59:56;1009.13;;;31.77;59.38
37170;BME280;23062;13.952;100.608;2023-06-14T06:04:27;1009.03;;;31.76;59.11
37170;BME280;23062;13.952;100.608;2023-06-14T06:08:55;1008.87;;;31.75;58.98
37170;BME280;23062;13.952;100.608;2023-06-14T06:13:23;1008.88;;;31.80;58.75
37170;BME280;23062;13.952;100.608;2023-06-14T06:17:50;1008.80;;;31.85;58.51
37170;BME280;23062;13.952;100.608;2023-06-14T06:22:18;1008.70;;;31.89;58.41
37170;BME280;23062;13.952;100.608;2023-06-14T06:26:44;1008.53;;;31.93;58.56
37170;BME280;23062;13.952;100.608;2023-06-14T06:31:09;1008.47;;;31.96;58.24
37170;BME280;23062;13.952;100.608;2023-06-14T06:35:43;1008.36;;;32.00;58.01
37170;BME280;23062;13.952;100.608;2023-06-14T06:40:10;1008.24;;;32.02;57.99
37170;BME280;23062;13.952;100.608;2023-06-14T06:44:37;1008.20;;;32.07;58.09
37170;BME280;23062;13.952;100.608;2023-06-14T06:49:05;1008.19;;;32.08;58.06
37170;BME280;23062;13.952;100.608;2023-06-14T06:53:31;1008.12;;;32.10;57.92
37170;BME280;23062;13.952;100.608;2023-06-14T06:57:57;1007.98;;;32.10;57.96
37170;BME280;23062;13.952;100.608;2023-06-14T07:02:35;1008.01;;;32.17;58.23
37170;BME280;23062;13.952;100.608;2023-06-14T07:07:02;1008.03;;;32.17;58.02
37170;BME280;23062;13.952;100.608;2023-06-14T07:11:37;1008.10;;;32.19;57.94
37170;BME280;23062;13.952;100.608;2023-06-14T07:16:11;1008.01;;;32.17;58.13
37170;BME280;23062;13.952;100.608;2023-06-14T07:20:45;1007.94;;;32.17;58.12
37170;BME280;23062;13.952;100.608;2023-06-14T07:25:13;1007.91;;;32.18;58.17
37170;BME280;23062;13.952;100.608;2023-06-14T07:29:45;1007.88;;;32.17;58.10
37170;BME280;23062;13.952;100.608;2023-06-14T07:34:13;1007.76;;;32.19;58.15
37170;BME280;23062;13.952;100.608;2023-06-14T07:38:45;1007.73;;;32.24;58.22
37170;BME280;23062;13.952;100.608;2023-06-14T07:43:18;1007.69;;;32.25;57.91
37170;BME280;23062;13.952;100.608;2023-06-14T07:47:52;1007.65;;;32.26;58.06
37170;BME280;23062;13.952;100.608;2023-06-14T07:52:19;1007.51;;;32.22;58.04
37170;BME280;23062;13.952;100.608;2023-06-14T07:56:50;1007.48;;;32.19;58.05
37170;BME280;23062;13.952;100.608;2023-06-14T08:01:17;1007.44;;;32.18;57.90
37170;BME280;23062;13.952;100.608;2023-06-14T08:05:44;1007.29;;;32.17;58.04
37170;BME280;23062;13.952;100.608;2023-06-14T08:10:16;1007.24;;;32.16;57.87
37170;BME280;23062;13.952;100.608;2023-06-14T08:14:44;1007.29;;;32.17;58.00
37170;BME280;23062;13.952;100.608;2023-06-14T08:19:11;1007.22;;;32.17;57.81
37170;BME280;23062;13.952;100.608;2023-06-14T08:23:50;1007.13;;;32.17;58.01
37170;BME280;23062;13.952;100.608;2023-06-14T08:28:16;1007.12;;;32.17;58.14
37170;BME280;23062;13.952;100.608;2023-06-14T08:32:49;1006.99;;;32.16;58.13
37170;BME280;23062;13.952;100.608;2023-06-14T08:37:17;1006.90;;;32.16;58.16
37170;BME280;23062;13.952;100.608;2023-06-14T08:41:46;1006.83;;;32.19;58.18
37170;BME280;23062;13.952;100.608;2023-06-14T08:46:13;1006.68;;;32.19;58.22
37170;BME280;23062;13.952;100.608;2023-06-14T08:50:41;1006.72;;;32.21;58.09
37170;BME280;23062;13.952;100.608;2023-06-14T08:55:10;1006.71;;;32.22;58.05
37170;BME280;23062;13.952;100.608;2023-06-14T08:59:36;1006.67;;;32.21;58.11
37170;BME280;23062;13.952;100.608;2023-06-14T09:04:04;1006.63;;;32.21;57.93
37170;BME280;23062;13.952;100.608;2023-06-14T09:08:30;1006.70;;;32.19;58.05
37170;BME280;23062;13.952;100.608;2023-06-14T09:12:58;1006.64;;;32.17;58.10
37170;BME280;23062;13.952;100.608;2023-06-14T09:17:24;1006.62;;;32.19;58.08
37170;BME280;23062;13.952;100.608;2023-06-14T09:21:58;1006.59;;;32.17;58.28
37170;BME280;23062;13.952;100.608;2023-06-14T09:26:32;1006.55;;;32.16;58.41
37170;BME280;23062;13.952;100.608;2023-06-14T09:31:00;1006.60;;;32.16;58.38
37170;BME280;23062;13.952;100.608;2023-06-14T09:35:26;1006.61;;;32.14;58.42
37170;BME280;23062;13.952;100.608;2023-06-14T09:40:01;1006.62;;;32.15;58.36
37170;BME280;23062;13.952;100.608;2023-06-14T09:44:29;1006.66;;;32.16;58.35
37170;BME280;23062;13.952;100.608;2023-06-14T09:48:58;1006.68;;;32.15;58.34
37170;BME280;23062;13.952;100.608;2023-06-14T09:53:25;1006.72;;;32.13;58.27
37170;BME280;23062;13.952;100.608;2023-06-14T09:57:52;1006.58;;;32.14;58.13
37170;BME280;23062;13.952;100.608;2023-06-14T10:02:22;1006.53;;;32.13;58.04
37170;BME280;23062;13.952;100.608;2023-06-14T10:07:09;1006.55;;;32.11;58.05
37170;BME280;23062;13.952;100.608;2023-06-14T10:11:37;1006.59;;;32.09;58.35
37170;BME280;23062;13.952;100.608;2023-06-14T10:16:22;1006.68;;;32.05;59.85
37170;BME280;23062;13.952;100.608;2023-06-14T10:25:44;1006.67;;;32.01;60.64
37170;BME280;23062;13.952;100.608;2023-06-14T10:30:18;1006.66;;;31.97;60.83
37170;BME280;23062;13.952;100.608;2023-06-14T10:34:57;1006.79;;;31.97;61.17
37170;BME280;23062;13.952;100.608;2023-06-14T10:39:28;1006.83;;;31.95;61.17
37170;BME280;23062;13.952;100.608;2023-06-14T10:48:42;1006.82;;;31.95;61.42
37170;BME280;23062;13.952;100.608;2023-06-14T10:53:25;1006.85;;;32.02;61.12
37170;BME280;23062;13.952;100.608;2023-06-14T10:57:53;1006.87;;;32.03;61.17
37170;BME280;23062;13.952;100.608;2023-06-14T11:02:43;1006.92;;;32.03;61.17
37170;BME280;23062;13.952;100.608;2023-06-14T11:07:18;1007.01;;;32.04;61.97
37170;BME280;23062;13.952;100.608;2023-06-14T11:11:39;1007.11;;;32.01;62.33
37170;BME280;23062;13.952;100.608;2023-06-14T11:16:11;1007.10;;;32.01;62.42
37170;BME280;23062;13.952;100.608;2023-06-14T11:20:39;1007.11;;;31.96;62.76
37170;BME280;23062;13.952;100.608;2023-06-14T11:25:08;1007.10;;;31.96;62.46
37170;BME280;23062;13.952;100.608;2023-06-14T11:29:32;1007.17;;;31.98;62.24
37170;BME280;23062;13.952;100.608;2023-06-14T11:34:00;1007.21;;;31.97;62.24
37170;BME280;23062;13.952;100.608;2023-06-14T11:38:26;1007.19;;;31.92;62.52
37170;BME280;23062;13.952;100.608;2023-06-14T11:43:04;1007.21;;;31.93;62.51
37170;BME280;23062;13.952;100.608;2023-06-14T11:47:35;1007.18;;;31.91;62.78
37170;BME280;23062;13.952;100.608;2023-06-14T11:52:03;1007.20;;;31.90;62.78
37170;BME280;23062;13.952;100.608;2023-06-14T11:56:32;1007.15;;;31.90;62.90
37170;BME280;23062;13.952;100.608;2023-06-14T12:00:59;1007.10;;;31.83;63.17
37170;BME280;23062;13.952;100.608;2023-06-14T12:05:27;1007.01;;;31.78;63.44
37170;BME280;23062;13.952;100.608;2023-06-14T12:14:35;1007.14;;;31.76;63.88
37170;BME280;23062;13.952;100.608;2023-06-14T12:19:14;1007.10;;;31.79;63.66
37170;BME280;23062;13.952;100.608;2023-06-14T12:23:50;1007.14;;;31.87;62.98
37170;BME280;23062;13.952;100.608;2023-06-14T12:28:21;1007.21;;;31.90;62.65
37170;BME280;23062;13.952;100.608;2023-06-14T12:32:48;1007.26;;;31.93;62.17
37170;BME280;23062;13.952;100.608;2023-06-14T12:37:17;1007.39;;;31.96;61.82
37170;BME280;23062;13.952;100.608;2023-06-14T12:41:50;1007.40;;;31.95;61.69
37170;BME280;23062;13.952;100.608;2023-06-14T12:46:17;1007.42;;;31.95;61.62
37170;BME280;23062;13.952;100.608;2023-06-14T12:50:48;1007.43;;;31.95;61.47
37170;BME280;23062;13.952;100.608;2023-06-14T12:55:15;1007.62;;;31.94;61.39
37170;BME280;23062;13.952;100.608;2023-06-14T12:59:43;1007.70;;;31.97;61.20
37170;BME280;23062;13.952;100.608;2023-06-14T13:04:12;1007.74;;;31.97;61.28
37170;BME280;23062;13.952;100.608;2023-06-14T13:08:39;1007.85;;;32.02;61.14
37170;BME280;23062;13.952;100.608;2023-06-14T13:13:07;1007.90;;;32.04;60.93
37170;BME280;23062;13.952;100.608;2023-06-14T13:17:35;1007.92;;;32.09;60.88
37170;BME280;23062;13.952;100.608;2023-06-14T13:22:15;1007.91;;;32.07;61.24
37170;BME280;23062;13.952;100.608;2023-06-14T13:26:48;1008.01;;;32.03;61.13
37170;BME280;23062;13.952;100.608;2023-06-14T13:31:16;1008.09;;;32.08;61.11
37170;BME280;23062;13.952;100.608;2023-06-14T13:35:44;1008.09;;;32.06;61.05
37170;BME280;23062;13.952;100.608;2023-06-14T13:40:14;1008.15;;;32.08;60.74
37170;BME280;23062;13.952;100.608;2023-06-14T13:44:43;1008.25;;;32.09;60.78
37170;BME280;23062;13.952;100.608;2023-06-14T13:49:18;1008.41;;;32.07;60.79
37170;BME280;23062;13.952;100.608;2023-06-14T13:53:47;1008.51;;;32.07;60.55
37170;BME280;23062;13.952;100.608;2023-06-14T13:58:15;1008.55;;;32.08;60.56
37170;BME280;23062;13.952;100.608;2023-06-14T14:02:42;1008.61;;;32.05;60.78
37170;BME280;23062;13.952;100.608;2023-06-14T14:07:09;1008.80;;;32.04;60.48
37170;BME280;23062;13.952;100.608;2023-06-14T14:11:36;1008.86;;;32.07;60.57
37170;BME280;23062;13.952;100.608;2023-06-14T14:16:12;1008.96;;;32.04;60.64
37170;BME280;23062;13.952;100.608;2023-06-14T14:20:42;1009.06;;;32.04;60.52
37170;BME280;23062;13.952;100.608;2023-06-14T14:25:13;1009.09;;;32.03;60.58
37170;BME280;23062;13.952;100.608;2023-06-14T14:31:39;1009.17;;;32.03;60.63
37170;BME280;23062;13.952;100.608;2023-06-14T14:36:15;1009.22;;;32.03;60.61
37170;BME280;23062;13.952;100.608;2023-06-14T14:40:46;1009.25;;;32.05;60.53
37170;BME280;23062;13.952;100.608;2023-06-14T14:45:19;1009.24;;;32.01;60.69
37170;BME280;23062;13.952;100.608;2023-06-14T14:49:47;1009.26;;;32.01;60.65
37170;BME280;23062;13.952;100.608;2023-06-14T14:54:29;1009.29;;;32.03;60.60
37170;BME280;23062;13.952;100.608;2023-06-14T14:58:56;1009.28;;;32.03;60.63
37170;BME280;23062;13.952;100.608;2023-06-14T15:03:44;1009.33;;;32.00;60.69
37170;BME280;23062;13.952;100.608;2023-06-14T15:08:12;1009.35;;;32.03;60.57
37170;BME280;23062;13.952;100.608;2023-06-14T15:12:43;1009.31;;;31.99;60.68
37170;BME280;23062;13.952;100.608;2023-06-14T15:17:29;1009.42;;;32.00;60.76
37170;BME280;23062;13.952;100.608;2023-06-14T15:22:10;1009.46;;;32.01;60.63
37170;BME280;23062;13.952;100.608;2023-06-14T15:26:45;1009.48;;;31.98;60.77
37170;BME280;23062;13.952;100.608;2023-06-14T15:31:13;1009.40;;;31.97;60.72
37170;BME280;23062;13.952;100.608;2023-06-14T15:35:47;1009.32;;;31.98;60.61
37170;BME280;23062;13.952;100.608;2023-06-14T15:40:15;1009.27;;;31.99;60.64
37170;BME280;23062;13.952;100.608;2023-06-14T15:44:42;1009.22;;;31.98;60.61
37170;BME280;23062;13.952;100.608;2023-06-14T15:49:12;1009.17;;;31.98;60.50
37170;BME280;23062;13.952;100.608;2023-06-14T15:53:43;1009.16;;;31.96;60.43
37170;BME280;23062;13.952;100.608;2023-06-14T15:58:12;1009.14;;;31.98;60.17
37170;BME280;23062;13.952;100.608;2023-06-14T16:02:45;1009.06;;;31.94;60.42
37170;BME280;23062;13.952;100.608;2023-06-14T16:07:15;1009.08;;;31.95;60.41
37170;BME280;23062;13.952;100.608;2023-06-14T16:11:50;1009.16;;;31.96;60.42
37170;BME280;23062;13.952;100.608;2023-06-14T16:16:18;1009.30;;;31.94;60.44
37170;BME280;23062;13.952;100.608;2023-06-14T16:20:52;1009.30;;;31.93;60.53
37170;BME280;23062;13.952;100.608;2023-06-14T16:25:21;1009.28;;;31.94;60.53
37170;BME280;23062;13.952;100.608;2023-06-14T16:29:54;1009.23;;;31.93;60.53
37170;BME280;23062;13.952;100.608;2023-06-14T16:34:33;1009.25;;;31.93;60.52
37170;BME280;23062;13.952;100.608;2023-06-14T16:39:01;1009.16;;;31.91;60.66
37170;BME280;23062;13.952;100.608;2023-06-14T16:43:28;1009.18;;;31.91;60.74
37170;BME280;23062;13.952;100.608;2023-06-14T16:48:09;1009.24;;;31.90;60.84
37170;BME280;23062;13.952;100.608;2023-06-14T16:52:44;1009.26;;;31.89;60.89
37170;BME280;23062;13.952;100.608;2023-06-14T16:57:27;1009.14;;;31.87;60.94
37170;BME280;23062;13.952;100.608;2023-06-14T17:02:20;1009.12;;;31.90;60.86
37170;BME280;23062;13.952;100.608;2023-06-14T17:06:49;1009.11;;;31.87;60.84
37170;BME280;23062;13.952;100.608;2023-06-14T17:11:25;1009.11;;;31.87;60.97
37170;BME280;23062;13.952;100.608;2023-06-14T17:16:04;1009.10;;;31.86;61.05
37170;BME280;23062;13.952;100.608;2023-06-14T17:20:31;1008.91;;;31.87;61.05
37170;BME280;23062;13.952;100.608;2023-06-14T17:25:06;1008.89;;;31.84;61.07
37170;BME280;23062;13.952;100.608;2023-06-14T17:29:47;1008.95;;;31.86;61.08
37170;BME280;23062;13.952;100.608;2023-06-14T17:34:36;1008.90;;;31.85;61.01
37170;BME280;23062;13.952;100.608;2023-06-14T17:39:25;1008.86;;;31.84;61.10
37170;BME280;23062;13.952;100.608;2023-06-14T17:43:56;1008.85;;;31.82;61.21
37170;BME280;23062;13.952;100.608;2023-06-14T17:48:32;1008.82;;;31.84;61.15
37170;BME280;23062;13.952;100.608;2023-06-14T17:52:59;1008.77;;;31.85;61.12
37170;BME280;23062;13.952;100.608;2023-06-14T17:57:27;1008.63;;;31.82;61.21
37170;BME280;23062;13.952;100.608;2023-06-14T18:01:54;1008.60;;;31.81;61.18
37170;BME280;23062;13.952;100.608;2023-06-14T18:06:20;1008.58;;;31.78;61.27
37170;BME280;23062;13.952;100.608;2023-06-14T18:11:23;1008.58;;;31.82;61.09
37170;BME280;23062;13.952;100.608;2023-06-14T18:15:59;1008.52;;;31.82;61.10
37170;BME280;23062;13.952;100.608;2023-06-14T18:20:34;1008.49;;;31.81;61.10
37170;BME280;23062;13.952;100.608;2023-06-14T18:25:19;1008.44;;;31.82;61.02
37170;BME280;23062;13.952;100.608;2023-06-14T18:29:55;1008.43;;;31.81;61.08
37170;BME280;23062;13.952;100.608;2023-06-14T18:34:53;1008.40;;;31.78;61.13
37170;BME280;23062;13.952;100.608;2023-06-14T18:39:27;1008.31;;;31.72;61.26
37170;BME280;23062;13.952;100.608;2023-06-14T18:43:54;1008.27;;;31.74;61.19
37170;BME280;23062;13.952;100.608;2023-06-14T18:48:24;1008.34;;;31.73;61.24
37170;BME280;23062;13.952;100.608;2023-06-14T18:52:51;1008.33;;;31.75;61.15
37170;BME280;23062;13.952;100.608;2023-06-14T18:57:21;1008.34;;;31.73;61.24
37170;BME280;23062;13.952;100.608;2023-06-14T19:01:49;1008.28;;;31.70;61.27
37170;BME280;23062;13.952;100.608;2023-06-14T19:06:17;1008.36;;;31.73;61.22
37170;BME280;23062;13.952;100.608;2023-06-14T19:11:07;1008.29;;;31.74;61.28
37170;BME280;23062;13.952;100.608;2023-06-14T19:15:36;1008.22;;;31.72;61.44
37170;BME280;23062;13.952;100.608;2023-06-14T19:20:03;1008.12;;;31.69;61.72
37170;BME280;23062;13.952;100.608;2023-06-14T19:24:31;1007.98;;;31.70;61.68
37170;BME280;23062;13.952;100.608;2023-06-14T19:28:58;1008.04;;;31.66;61.80
37170;BME280;23062;13.952;100.608;2023-06-14T19:33:27;1008.05;;;31.67;61.81
37170;BME280;23062;13.952;100.608;2023-06-14T19:37:55;1008.04;;;31.65;62.06
37170;BME280;23062;13.952;100.608;2023-06-14T19:42:21;1007.99;;;31.64;62.09
37170;BME280;23062;13.952;100.608;2023-06-14T19:47:25;1007.92;;;31.70;61.86
37170;BME280;23062;13.952;100.608;2023-06-14T19:51:52;1007.90;;;31.64;62.08
37170;BME280;23062;13.952;100.608;2023-06-14T19:56:21;1007.89;;;31.68;62.01
37170;BME280;23062;13.952;100.608;2023-06-14T20:00:58;1007.86;;;31.65;62.09
37170;BME280;23062;13.952;100.608;2023-06-14T20:05:31;1007.92;;;31.59;62.35
37170;BME280;23062;13.952;100.608;2023-06-14T20:10:06;1007.93;;;31.61;62.25
37170;BME280;23062;13.952;100.608;2023-06-14T20:14:42;1007.97;;;31.60;62.24
37170;BME280;23062;13.952;100.608;2023-06-14T20:19:09;1007.96;;;31.65;62.12
37170;BME280;23062;13.952;100.608;2023-06-14T20:23:38;1007.97;;;31.60;62.44
37170;BME280;23062;13.952;100.608;2023-06-14T20:28:06;1007.86;;;31.65;62.36
37170;BME280;23062;13.952;100.608;2023-06-14T20:34:28;1007.78;;;31.68;62.00
37170;BME280;23062;13.952;100.608;2023-06-14T20:38:55;1007.77;;;31.73;61.90
37170;BME280;23062;13.952;100.608;2023-06-14T20:43:29;1007.75;;;31.61;62.89
37170;BME280;23062;13.952;100.608;2023-06-14T20:47:56;1007.73;;;31.60;63.23
37170;BME280;23062;13.952;100.608;2023-06-14T20:52:30;1007.72;;;31.61;63.79
37170;BME280;23062;13.952;100.608;2023-06-14T20:56:57;1007.83;;;31.50;65.38
37170;BME280;23062;13.952;100.608;2023-06-14T21:01:26;1007.81;;;31.57;65.00
37170;BME280;23062;13.952;100.608;2023-06-14T21:06:53;1007.86;;;31.59;65.74
37170;BME280;23062;13.952;100.608;2023-06-14T21:12:39;1007.87;;;31.55;66.20
37170;BME280;23062;13.952;100.608;2023-06-14T21:17:07;1007.92;;;31.50;66.89
37170;BME280;23062;13.952;100.608;2023-06-14T21:21:34;1007.93;;;31.46;67.83
37170;BME280;23062;13.952;100.608;2023-06-14T21:26:09;1007.92;;;31.39;67.95
37170;BME280;23062;13.952;100.608;2023-06-14T21:30:36;1007.94;;;31.38;68.46
37170;BME280;23062;13.952;100.608;2023-06-14T21:35:10;1007.97;;;31.32;69.18
37170;BME280;23062;13.952;100.608;2023-06-14T21:39:36;1007.92;;;31.30;69.66
37170;BME280;23062;13.952;100.608;2023-06-14T21:46:55;1007.86;;;31.31;69.93
37170;BME280;23062;13.952;100.608;2023-06-14T21:51:22;1007.86;;;31.28;69.88
37170;BME280;23062;13.952;100.608;2023-06-14T21:55:54;1007.87;;;31.25;70.19
37170;BME280;23062;13.952;100.608;2023-06-14T22:00:20;1007.93;;;31.25;69.99
37170;BME280;23062;13.952;100.608;2023-06-14T22:04:57;1007.90;;;31.19;70.20
37170;BME280;23062;13.952;100.608;2023-06-14T22:09:25;1007.98;;;31.08;71.04
37170;BME280;23062;13.952;100.608;2023-06-14T22:13:58;1007.98;;;31.04;71.12
37170;BME280;23062;13.952;100.608;2023-06-14T22:18:28;1007.94;;;31.02;71.16
37170;BME280;23062;13.952;100.608;2023-06-14T22:23:01;1007.95;;;31.12;70.51
37170;BME280;23062;13.952;100.608;2023-06-14T22:27:29;1007.99;;;31.08;71.04
37170;BME280;23062;13.952;100.608;2023-06-14T22:31:56;1008.02;;;31.14;71.05
37170;BME280;23062;13.952;100.608;2023-06-14T22:36:23;1008.00;;;31.12;70.87
37170;BME280;23062;13.952;100.608;2023-06-14T22:40:59;1007.96;;;31.18;70.35
37170;BME280;23062;13.952;100.608;2023-06-14T22:45:26;1008.02;;;31.23;69.88
37170;BME280;23062;13.952;100.608;2023-06-14T22:49:53;1008.04;;;31.26;69.46
37170;BME280;23062;13.952;100.608;2023-06-14T22:54:21;1008.09;;;31.26;68.69
37170;BME280;23062;13.952;100.608;2023-06-14T22:58:48;1008.12;;;31.19;68.82
37170;BME280;23062;13.952;100.608;2023-06-14T23:03:16;1008.15;;;31.12;69.11
37170;BME280;23062;13.952;100.608;2023-06-14T23:07:43;1008.20;;;31.23;68.57
37170;BME280;23062;13.952;100.608;2023-06-14T23:12:13;1008.26;;;31.20;68.09
37170;BME280;23062;13.952;100.608;2023-06-14T23:16:39;1008.35;;;31.17;67.69
37170;BME280;23062;13.952;100.608;2023-06-14T23:21:07;1008.44;;;31.21;67.74
37170;BME280;23062;13.952;100.608;2023-06-14T23:25:35;1008.41;;;31.21;67.84
37170;BME280;23062;13.952;100.608;2023-06-14T23:30:01;1008.43;;;31.22;67.80
37170;BME280;23062;13.952;100.608;2023-06-14T23:34:27;1008.43;;;31.22;67.71
37170;BME280;23062;13.952;100.608;2023-06-14T23:38:54;1008.43;;;31.24;67.85
37170;BME280;23062;13.952;100.608;2023-06-14T23:43:30;1008.45;;;31.21;67.76
37170;BME280;23062;13.952;100.608;2023-06-14T23:48:04;1008.52;;;31.21;67.65
37170;BME280;23062;13.952;100.608;2023-06-14T23:52:43;1008.50;;;31.21;67.93
37170;BME280;23062;13.952;100.608;2023-06-14T23:57:13;1008.49;;;31.26;67.41
